Time;durP1;ratioP1;P1;durP2;ratioP2;P2;SDS_P1;SDS_P2;PMS_P1;PMS_P2;Temp;Humidity;BMP_temperature;BMP_pressure;BME280_temperature;BME280_humidity;BME280_pressure;Samples;Min_cycle;Max_cycle;Signal;HPM_P1;HPM_P2
2022/10/30 00:03:20;;;;;;;13.40;7.20;;;;;;;;;;12869165;23;20235;-73
2022/10/30 00:08:21;;;;;;;11.23;7.70;;;;;;;;;;12870275;23;20004;-73
2022/10/30 00:13:22;;;;;;;13.10;7.18;;;;;;;;;;12847459;23;20067;-75
2022/10/30 00:18:22;;;;;;;15.60;8.20;;;;;;;;;;12847378;23;19996;-74
2022/10/30 00:23:22;;;;;;;12.98;7.95;;;;;;;;;;12871287;23;19997;-78
2022/10/30 00:28:23;;;;;;;15.68;7.97;;;;;;;;;;12847289;23;20414;-75
2022/10/30 00:33:24;;;;;;;13.77;8.07;;;;;;;;;;12869453;23;19993;-76
2022/10/30 00:38:24;;;;;;;17.08;8.05;;;;;;;;;;12846567;23;20349;-75
2022/10/30 00:43:32;;;;;;;14.70;9.30;;;;;;;;;;12847482;23;20002;-76
2022/10/30 00:48:32;;;;;;;14.02;8.13;;;;;;;;;;12849000;23;20388;-76
2022/10/30 00:53:33;;;;;;;18.30;8.77;;;;;;;;;;12846812;23;19993;-75
2022/10/30 00:58:36;;;;;;;13.37;8.37;;;;;;;;;;12845526;23;20016;-77
2022/10/30 01:03:38;;;;;;;12.63;8.40;;;;;;;;;;12846645;23;20003;-75
2022/10/30 01:08:38;;;;;;;13.65;8.63;;;;;;;;;;12847704;23;20000;-79
2022/10/30 01:13:39;;;;;;;14.83;9.77;;;;;;;;;;12856866;23;19997;-80
2022/10/30 01:19:00;;;;;;;19.48;9.43;;;;;;;;;;12886838;23;20228;-75
2022/10/30 01:24:18;;;;;;;12.32;7.43;;;;;;;;;;12885706;23;20080;-74
2022/10/30 01:29:25;;;;;;;18.70;10.27;;;;;;;;;;12875117;23;20069;-75
2022/10/30 01:34:39;;;;;;;23.98;11.02;;;;;;;;;;12863972;23;20353;-75
2022/10/30 01:39:39;;;;;;;21.55;11.48;;;;;;;;;;12871248;23;19984;-74
2022/10/30 01:44:40;;;;;;;14.30;9.52;;;;;;;;;;12871866;23;20004;-75
2022/10/30 01:50:16;;;;;;;18.40;10.17;;;;;;;;;;12874846;23;20341;-72
2022/10/30 01:55:34;;;;;;;16.25;9.20;;;;;;;;;;12683784;23;19993;-77
2022/10/30 02:00:36;;;;;;;19.23;10.82;;;;;;;;;;12853427;23;19996;-75
2022/10/30 02:05:47;;;;;;;16.35;10.60;;;;;;;;;;12852649;23;20009;-76
2022/10/30 02:10:48;;;;;;;15.55;10.35;;;;;;;;;;12852308;23;19989;-74
2022/10/30 02:15:49;;;;;;;18.25;10.25;;;;;;;;;;12852972;23;20023;-74
2022/10/30 02:20:49;;;;;;;14.07;9.75;;;;;;;;;;12852056;23;19992;-76
2022/10/30 02:25:51;;;;;;;20.20;10.82;;;;;;;;;;12868170;23;20004;-75
2022/10/30 02:30:52;;;;;;;19.60;10.90;;;;;;;;;;12852024;23;20013;-75
2022/10/30 02:35:55;;;;;;;18.73;10.75;;;;;;;;;;12852268;23;20008;-75
2022/10/30 02:40:56;;;;;;;23.20;11.32;;;;;;;;;;12851970;23;19996;-74
2022/10/30 02:45:56;;;;;;;19.52;11.88;;;;;;;;;;12851842;23;20008;-77
2022/10/30 02:51:01;;;;;;;18.63;11.25;;;;;;;;;;12851743;23;20523;-76
2022/10/30 02:56:03;;;;;;;22.73;12.00;;;;;;;;;;12875078;23;19989;-75
2022/10/30 03:01:04;;;;;;;20.17;13.02;;;;;;;;;;12850871;23;19996;-75
2022/10/30 03:06:06;;;;;;;19.95;13.18;;;;;;;;;;12851316;23;20396;-75
2022/10/30 03:11:08;;;;;;;24.83;11.98;;;;;;;;;;12850702;23;20425;-78
2022/10/30 03:16:15;;;;;;;21.02;12.05;;;;;;;;;;12851361;23;19993;-79
2022/10/30 03:21:19;;;;;;;28.83;13.02;;;;;;;;;;12873082;23;20528;-76
2022/10/30 03:26:19;;;;;;;22.27;11.80;;;;;;;;;;12850291;23;20019;-80
2022/10/30 03:31:20;;;;;;;28.08;13.75;;;;;;;;;;12874036;23;20142;-74
2022/10/30 03:36:21;;;;;;;23.80;12.33;;;;;;;;;;12850728;23;20485;-77
2022/10/30 03:41:21;;;;;;;22.63;12.25;;;;;;;;;;12873071;23;20234;-74
2022/10/30 03:46:21;;;;;;;22.97;13.93;;;;;;;;;;12850498;23;20425;-77
2022/10/30 03:51:21;;;;;;;23.33;13.93;;;;;;;;;;12852010;23;20259;-75
2022/10/30 03:56:22;;;;;;;19.00;12.10;;;;;;;;;;12850589;23;19988;-75
2022/10/30 04:01:22;;;;;;;26.15;13.45;;;;;;;;;;12850126;23;19997;-77
2022/10/30 04:06:22;;;;;;;23.27;12.63;;;;;;;;;;12872166;23;20000;-76
2022/10/30 04:11:22;;;;;;;21.08;12.00;;;;;;;;;;12849579;23;19993;-74
2022/10/30 04:16:23;;;;;;;22.45;12.88;;;;;;;;;;12850300;23;20071;-80
2022/10/30 04:21:23;;;;;;;27.02;14.38;;;;;;;;;;12849353;23;20349;-71
2022/10/30 04:26:23;;;;;;;26.73;12.85;;;;;;;;;;12849703;23;20082;-74
2022/10/30 04:31:23;;;;;;;21.63;13.38;;;;;;;;;;12852212;23;20601;-80
2022/10/30 04:36:29;;;;;;;27.15;15.10;;;;;;;;;;12850760;23;20459;-72
2022/10/30 04:41:30;;;;;;;28.38;14.65;;;;;;;;;;12849922;23;20337;-75
2022/10/30 04:46:30;;;;;;;24.25;14.60;;;;;;;;;;12849894;23;20012;-79
2022/10/30 04:51:31;;;;;;;23.73;13.70;;;;;;;;;;12872324;23;20393;-74
2022/10/30 04:56:31;;;;;;;30.50;13.35;;;;;;;;;;12869131;23;19992;-76
2022/10/30 05:01:32;;;;;;;30.30;13.90;;;;;;;;;;12871066;23;19988;-75
2022/10/30 05:06:32;;;;;;;29.23;13.98;;;;;;;;;;12849127;23;20076;-77
2022/10/30 05:11:32;;;;;;;22.23;13.38;;;;;;;;;;12875751;23;19989;-77
2022/10/30 05:16:33;;;;;;;28.85;14.48;;;;;;;;;;12859755;23;20072;-74
2022/10/30 05:21:33;;;;;;;31.95;14.52;;;;;;;;;;12859038;23;20000;-75
2022/10/30 05:26:33;;;;;;;29.67;14.43;;;;;;;;;;12853234;23;20040;-74
2022/10/30 05:31:33;;;;;;;19.92;10.68;;;;;;;;;;12852691;23;20435;-75
2022/10/30 05:36:34;;;;;;;18.77;11.45;;;;;;;;;;12875535;23;20018;-80
2022/10/30 05:41:35;;;;;;;26.10;11.88;;;;;;;;;;12871021;23;20407;-76
2022/10/30 05:46:35;;;;;;;21.98;13.23;;;;;;;;;;12852754;23;20008;-74
2022/10/30 05:51:35;;;;;;;18.58;10.90;;;;;;;;;;12866860;23;20003;-73
2022/10/30 05:56:35;;;;;;;26.95;14.95;;;;;;;;;;12857218;23;19996;-78
2022/10/30 06:01:36;;;;;;;23.20;12.73;;;;;;;;;;12854728;23;20082;-74
2022/10/30 06:06:36;;;;;;;28.48;13.98;;;;;;;;;;12851757;23;20110;-75
2022/10/30 06:11:36;;;;;;;27.38;13.10;;;;;;;;;;12851567;23;19985;-73
2022/10/30 06:16:36;;;;;;;27.27;14.63;;;;;;;;;;12851802;23;20028;-78
2022/10/30 06:21:37;;;;;;;20.70;11.87;;;;;;;;;;12851444;23;20004;-76
2022/10/30 06:26:37;;;;;;;21.15;11.70;;;;;;;;;;12851263;23;20012;-78
2022/10/30 06:31:37;;;;;;;25.52;10.85;;;;;;;;;;12850793;23;20445;-74
2022/10/30 06:36:37;;;;;;;24.98;11.13;;;;;;;;;;12850342;23;19989;-74
2022/10/30 06:41:37;;;;;;;24.23;11.32;;;;;;;;;;12850877;23;20000;-76
2022/10/30 06:46:38;;;;;;;18.60;9.23;;;;;;;;;;12850939;23;20012;-78
2022/10/30 06:51:38;;;;;;;15.20;8.52;;;;;;;;;;12850682;23;20012;-76
2022/10/30 06:56:38;;;;;;;24.10;10.73;;;;;;;;;;12852898;23;20734;-75
2022/10/30 07:01:39;;;;;;;29.57;11.27;;;;;;;;;;12850653;23;20075;-75
2022/10/30 07:06:39;;;;;;;18.45;8.90;;;;;;;;;;12872611;23;20251;-74
2022/10/30 07:11:44;;;;;;;22.00;11.07;;;;;;;;;;12850358;23;19985;-74
2022/10/30 07:16:44;;;;;;;27.25;10.10;;;;;;;;;;12850111;23;19997;-76
2022/10/30 07:21:45;;;;;;;22.90;10.80;;;;;;;;;;12849749;23;20031;-75
2022/10/30 07:26:45;;;;;;;21.00;10.13;;;;;;;;;;12861602;23;20021;-75
2022/10/30 07:31:48;;;;;;;22.52;11.63;;;;;;;;;;12850290;23;19993;-75
2022/10/30 07:36:48;;;;;;;21.98;12.57;;;;;;;;;;12849553;23;19999;-76
2022/10/30 07:41:49;;;;;;;19.08;10.23;;;;;;;;;;12849452;23;20027;-76
2022/10/30 07:46:49;;;;;;;18.98;9.55;;;;;;;;;;12824217;23;20429;-74
2022/10/30 07:51:49;;;;;;;17.70;9.68;;;;;;;;;;12850923;23;20000;-74
2022/10/30 07:56:50;;;;;;;20.30;10.15;;;;;;;;;;12849926;23;20000;-75
2022/10/30 08:01:50;;;;;;;17.52;10.50;;;;;;;;;;12849105;23;19999;-76
2022/10/30 08:06:51;;;;;;;26.70;10.83;;;;;;;;;;12848566;23;20001;-81
2022/10/30 08:11:52;;;;;;;18.10;9.50;;;;;;;;;;12849430;23;19988;-78
2022/10/30 08:16:53;;;;;;;20.50;10.80;;;;;;;;;;12848468;23;20341;-75
2022/10/30 08:21:55;;;;;;;21.58;10.13;;;;;;;;;;12850224;23;20488;-75
2022/10/30 08:26:55;;;;;;;20.73;11.10;;;;;;;;;;12850671;23;20017;-77
2022/10/30 08:31:56;;;;;;;18.88;10.32;;;;;;;;;;12849902;23;20564;-74
2022/10/30 08:36:56;;;;;;;23.98;12.13;;;;;;;;;;12851004;23;20330;-74
2022/10/30 08:41:58;;;;;;;26.30;10.97;;;;;;;;;;12851134;23;20020;-79
2022/10/30 08:46:58;;;;;;;15.90;10.63;;;;;;;;;;12849816;23;20802;-80
2022/10/30 08:51:58;;;;;;;19.58;9.80;;;;;;;;;;12849581;23;20020;-74
2022/10/30 08:56:58;;;;;;;21.48;9.32;;;;;;;;;;12848872;23;19997;-74
2022/10/30 09:01:59;;;;;;;18.38;9.82;;;;;;;;;;12849104;23;19992;-77
2022/10/30 09:06:59;;;;;;;22.95;10.38;;;;;;;;;;12871390;23;20079;-77
2022/10/30 09:11:59;;;;;;;17.63;10.07;;;;;;;;;;12848990;23;19996;-74
2022/10/30 09:17:00;;;;;;;22.92;9.27;;;;;;;;;;12848999;23;19992;-74
2022/10/30 09:22:00;;;;;;;19.30;9.48;;;;;;;;;;12871696;23;20039;-74
2022/10/30 09:27:00;;;;;;;15.00;9.10;;;;;;;;;;12848371;23;20019;-78
2022/10/30 09:32:01;;;;;;;24.85;10.18;;;;;;;;;;12847501;23;20028;-75
2022/10/30 09:37:01;;;;;;;17.00;7.25;;;;;;;;;;12847325;23;20193;-74
2022/10/30 09:42:14;;;;;;;19.20;7.65;;;;;;;;;;12848205;23;19989;-79
2022/10/30 09:47:17;;;;;;;16.85;8.07;;;;;;;;;;12870492;23;20008;-76
2022/10/30 09:52:46;;;;;;;11.88;7.47;;;;;;;;;;12870581;23;19989;-75
2022/10/30 09:57:49;;;;;;;13.43;6.93;;;;;;;;;;12744240;23;19992;-74
2022/10/30 10:03:08;;;;;;;14.43;6.72;;;;;;;;;;12847650;23;20016;-74
2022/10/30 10:08:11;;;;;;;17.88;7.25;;;;;;;;;;12849274;23;20005;-75
2022/10/30 10:13:27;;;;;;;12.88;6.60;;;;;;;;;;12852423;23;20050;-81
2022/10/30 10:18:42;;;;;;;15.27;6.30;;;;;;;;;;12852185;23;19996;-75
2022/10/30 10:23:48;;;;;;;11.90;4.93;;;;;;;;;;12874279;23;20003;-75
2022/10/30 10:28:57;;;;;;;11.70;4.95;;;;;;;;;;12851006;23;20016;-74
2022/10/30 10:34:03;;;;;;;9.02;4.72;;;;;;;;;;12851562;23;19993;-75
2022/10/30 10:39:03;;;;;;;;;;;;;;;;;;12851754;23;19995;-73
2022/10/30 10:44:12;;;;;;;10.10;4.38;;;;;;;;;;12851027;23;19932;-75
2022/10/30 10:49:25;;;;;;;11.82;3.60;;;;;;;;;;12851053;23;20008;-74
2022/10/30 10:54:38;;;;;;;9.95;3.90;;;;;;;;;;12852250;23;19992;-75
2022/10/30 10:59:41;;;;;;;10.18;4.15;;;;;;;;;;12851302;23;19993;-74
2022/10/30 11:04:45;;;;;;;8.70;4.72;;;;;;;;;;12851182;23;20437;-78
2022/10/30 11:09:47;;;;;;;8.40;4.90;;;;;;;;;;12850977;23;19992;-74
2022/10/30 11:14:48;;;;;;;10.50;4.05;;;;;;;;;;12873250;23;19992;-79
2022/10/30 11:19:50;;;;;;;8.27;3.80;;;;;;;;;;12850039;23;20337;-76
2022/10/30 11:24:50;;;;;;;5.25;3.30;;;;;;;;;;12825100;23;20063;-74
2022/10/30 11:29:52;;;;;;;11.40;3.72;;;;;;;;;;12849957;23;20039;-74
2022/10/30 11:35:09;;;;;;;10.02;3.08;;;;;;;;;;12854609;23;19992;-77
2022/10/30 11:40:10;;;;;;;8.02;4.30;;;;;;;;;;12849317;23;20039;-82
2022/10/30 11:45:15;;;;;;;11.88;4.95;;;;;;;;;;12850474;23;20001;-78
2022/10/30 11:50:17;;;;;;;5.65;2.97;;;;;;;;;;12849471;23;19997;-74
2022/10/30 11:55:32;;;;;;;6.95;2.90;;;;;;;;;;12849467;23;20412;-73
2022/10/30 12:00:34;;;;;;;8.10;3.08;;;;;;;;;;12849394;23;20025;-79
2022/10/30 12:05:37;;;;;;;11.75;3.65;;;;;;;;;;12863205;23;20352;-80
2022/10/30 12:10:50;;;;;;;8.30;3.47;;;;;;;;;;12861211;23;20068;-79
2022/10/30 12:16:03;;;;;;;5.45;2.85;;;;;;;;;;12851463;23;20382;-74
2022/10/30 12:21:03;;;;;;;9.02;2.85;;;;;;;;;;12823709;23;20071;-75
2022/10/30 12:26:09;;;;;;;9.40;3.22;;;;;;;;;;12825030;23;20110;-75
2022/10/30 12:31:09;;;;;;;7.30;3.10;;;;;;;;;;12851083;23;20050;-80
2022/10/30 12:36:18;;;;;;;5.95;3.25;;;;;;;;;;12871188;23;19993;-75
2022/10/30 12:41:23;;;;;;;9.50;2.70;;;;;;;;;;12849385;23;20000;-75
2022/10/30 12:46:23;;;;;;;8.20;3.00;;;;;;;;;;12848480;23;20091;-73
2022/10/30 12:51:48;;;;;;;11.82;3.03;;;;;;;;;;12849036;23;20031;-76
2022/10/30 12:56:52;;;;;;;3.92;2.80;;;;;;;;;;12848789;23;20001;-74
2022/10/30 13:02:22;;;;;;;5.97;2.92;;;;;;;;;;12824004;23;20004;-75
2022/10/30 13:07:30;;;;;;;10.43;3.00;;;;;;;;;;12823240;23;20038;-75
2022/10/30 13:12:36;;;;;;;6.65;2.70;;;;;;;;;;12824205;23;20066;-74
2022/10/30 13:17:36;;;;;;;8.70;2.33;;;;;;;;;;12848573;23;19999;-74
2022/10/30 13:22:37;;;;;;;4.85;2.13;;;;;;;;;;12848752;23;19992;-75
2022/10/30 13:27:45;;;;;;;17.77;2.53;;;;;;;;;;12858458;23;20475;-75
2022/10/30 13:32:56;;;;;;;4.30;1.60;;;;;;;;;;12870480;23;20727;-79
2022/10/30 13:38:02;;;;;;;3.10;1.30;;;;;;;;;;12856504;23;19993;-74
2022/10/30 13:43:21;;;;;;;6.38;1.52;;;;;;;;;;12849452;23;20046;-75
2022/10/30 13:48:22;;;;;;;5.80;2.10;;;;;;;;;;12880268;23;19996;-76
2022/10/30 13:53:24;;;;;;;3.42;1.45;;;;;;;;;;12852308;23;20497;-81
2022/10/30 13:58:33;;;;;;;8.90;1.60;;;;;;;;;;12850945;23;20348;-74
2022/10/30 14:03:37;;;;;;;4.38;1.50;;;;;;;;;;12851928;23;19996;-75
2022/10/30 14:08:48;;;;;;;11.93;2.15;;;;;;;;;;12851653;23;20511;-81
2022/10/30 14:13:51;;;;;;;8.00;2.88;;;;;;;;;;12847731;23;20027;-77
2022/10/30 14:18:58;;;;;;;6.25;1.92;;;;;;;;;;12874213;23;20336;-75
2022/10/30 14:24:10;;;;;;;8.48;2.20;;;;;;;;;;12852097;23;20388;-74
2022/10/30 14:29:30;;;;;;;6.82;1.65;;;;;;;;;;12851435;23;20062;-75
2022/10/30 14:34:40;;;;;;;7.82;2.08;;;;;;;;;;12873575;23;19985;-75
2022/10/30 14:39:41;;;;;;;8.52;2.35;;;;;;;;;;12826161;23;19992;-78
2022/10/30 14:44:48;;;;;;;10.90;2.20;;;;;;;;;;12850729;23;19997;-74
2022/10/30 14:49:59;;;;;;;8.73;2.40;;;;;;;;;;12851463;23;20463;-79
2022/10/30 14:55:18;;;;;;;7.70;2.50;;;;;;;;;;12851400;23;19992;-75
2022/10/30 15:00:21;;;;;;;11.60;2.42;;;;;;;;;;12851415;23;19999;-74
2022/10/30 15:05:40;;;;;;;10.27;2.85;;;;;;;;;;12849894;23;20104;-76
2022/10/30 15:10:50;;;;;;;10.32;3.30;;;;;;;;;;12851126;23;19996;-75
2022/10/30 15:16:01;;;;;;;9.85;4.28;;;;;;;;;;12850914;23;20337;-78
2022/10/30 15:21:05;;;;;;;8.30;2.97;;;;;;;;;;12825120;23;20004;-75
2022/10/30 15:26:07;;;;;;;9.45;3.05;;;;;;;;;;12850362;23;20020;-75
2022/10/30 15:31:17;;;;;;;12.70;3.92;;;;;;;;;;12850280;23;20068;-79
2022/10/30 15:36:18;;;;;;;12.02;3.45;;;;;;;;;;12850595;23;19996;-74
2022/10/30 15:41:18;;;;;;;10.45;3.00;;;;;;;;;;12871295;23;20003;-74
2022/10/30 15:46:18;;;;;;;8.25;3.63;;;;;;;;;;12872674;23;20425;-75
2022/10/30 15:51:22;;;;;;;14.23;3.75;;;;;;;;;;12874278;23;20337;-76
2022/10/30 15:56:26;;;;;;;8.07;3.20;;;;;;;;;;12849708;23;20003;-74
2022/10/30 16:01:29;;;;;;;11.13;3.00;;;;;;;;;;12849116;23;20008;-75
2022/10/30 16:06:30;;;;;;;14.00;2.90;;;;;;;;;;12848279;23;20118;-73
2022/10/30 16:11:30;;;;;;;8.02;3.22;;;;;;;;;;12869199;23;20310;-76
2022/10/30 16:16:32;;;;;;;28.73;4.78;;;;;;;;;;12848697;23;19992;-74
2022/10/30 16:21:33;;;;;;;9.25;3.50;;;;;;;;;;12870234;23;20428;-74
2022/10/30 16:26:35;;;;;;;14.60;3.95;;;;;;;;;;12856010;23;20028;-83
2022/10/30 16:31:35;;;;;;;5.38;3.22;;;;;;;;;;12848058;23;20466;-79
2022/10/30 16:36:36;;;;;;;9.20;3.70;;;;;;;;;;12870050;23;20020;-77
2022/10/30 16:41:37;;;;;;;11.00;4.63;;;;;;;;;;12847548;23;20024;-75
2022/10/30 16:46:39;;;;;;;13.52;4.15;;;;;;;;;;12847102;23;20001;-79
2022/10/30 16:51:40;;;;;;;7.70;3.83;;;;;;;;;;12848287;23;20000;-77
2022/10/30 16:56:46;;;;;;;7.90;3.85;;;;;;;;;;12847447;23;19989;-79
2022/10/30 17:01:51;;;;;;;8.60;4.13;;;;;;;;;;12823938;23;20000;-75
2022/10/30 17:07:02;;;;;;;5.93;3.53;;;;;;;;;;12847880;23;20462;-76
2022/10/30 17:12:06;;;;;;;10.50;3.47;;;;;;;;;;12870032;23;19993;-75
2022/10/30 17:17:42;;;;;;;12.82;4.20;;;;;;;;;;12870157;23;19989;-74
2022/10/30 17:22:42;;;;;;;6.93;3.45;;;;;;;;;;12716525;23;20018;-78
2022/10/30 17:27:42;;;;;;;10.25;4.55;;;;;;;;;;12851968;23;20040;-83
2022/10/30 17:32:43;;;;;;;9.32;3.72;;;;;;;;;;12851842;23;20016;-80
2022/10/30 17:37:44;;;;;;;9.60;4.18;;;;;;;;;;12872201;23;20460;-78
2022/10/30 17:42:44;;;;;;;13.97;4.10;;;;;;;;;;12850870;23;20000;-75
2022/10/30 17:47:44;;;;;;;6.72;4.00;;;;;;;;;;12850806;23;20066;-78
2022/10/30 17:52:46;;;;;;;9.55;4.28;;;;;;;;;;12872880;23;20068;-78
2022/10/30 17:57:46;;;;;;;8.60;3.70;;;;;;;;;;12851279;23;19996;-76
2022/10/30 18:02:47;;;;;;;9.85;4.25;;;;;;;;;;12850679;23;19999;-75
2022/10/30 18:07:47;;;;;;;5.75;3.85;;;;;;;;;;12850726;23;19997;-72
2022/10/30 18:12:48;;;;;;;9.68;4.30;;;;;;;;;;12850720;23;20027;-75
2022/10/30 18:17:48;;;;;;;5.65;3.17;;;;;;;;;;12851410;23;20063;-73
2022/10/30 18:22:49;;;;;;;6.80;4.43;;;;;;;;;;12850772;23;20004;-78
2022/10/30 18:27:49;;;;;;;8.07;3.28;;;;;;;;;;12867850;23;20005;-78
2022/10/30 18:32:50;;;;;;;13.20;4.43;;;;;;;;;;12865040;23;20115;-76
2022/10/30 18:37:50;;;;;;;8.77;3.90;;;;;;;;;;12855299;23;20448;-74
2022/10/30 18:42:51;;;;;;;9.00;3.53;;;;;;;;;;12864437;23;20061;-77
2022/10/30 18:47:51;;;;;;;11.73;4.17;;;;;;;;;;12849906;23;20453;-75
2022/10/30 18:52:53;;;;;;;11.18;4.43;;;;;;;;;;12849878;23;20023;-75
2022/10/30 18:57:53;;;;;;;6.38;3.50;;;;;;;;;;12850316;23;19997;-75
2022/10/30 19:02:54;;;;;;;11.70;4.97;;;;;;;;;;12849514;23;20071;-75
2022/10/30 19:07:55;;;;;;;5.63;2.78;;;;;;;;;;12850586;23;19997;-80
2022/10/30 19:13:00;;;;;;;6.93;3.30;;;;;;;;;;12849483;23;20003;-76
2022/10/30 19:18:01;;;;;;;6.88;3.40;;;;;;;;;;12849494;23;19999;-78
2022/10/30 19:23:02;;;;;;;11.32;4.15;;;;;;;;;;12849199;23;20400;-74
2022/10/30 19:28:02;;;;;;;8.63;3.35;;;;;;;;;;12823852;23;20048;-76
2022/10/30 19:33:02;;;;;;;9.33;3.20;;;;;;;;;;12848267;23;19992;-75
2022/10/30 19:38:06;;;;;;;6.95;3.38;;;;;;;;;;12862360;23;20003;-76
2022/10/30 19:43:07;;;;;;;5.18;3.00;;;;;;;;;;12848904;23;20001;-76
2022/10/30 19:48:13;;;;;;;8.85;3.85;;;;;;;;;;12848462;23;20340;-74
2022/10/30 19:53:13;;;;;;;5.60;2.63;;;;;;;;;;12871115;23;19989;-74
2022/10/30 19:58:14;;;;;;;7.43;2.85;;;;;;;;;;12848446;23;20399;-74
2022/10/30 20:03:15;;;;;;;12.07;2.90;;;;;;;;;;12870797;23;20067;-73
2022/10/30 20:08:20;;;;;;;8.90;3.03;;;;;;;;;;12848448;23;20135;-74
2022/10/30 20:13:24;;;;;;;9.05;3.35;;;;;;;;;;12870620;23;19984;-75
2022/10/30 20:18:30;;;;;;;6.55;2.67;;;;;;;;;;12870067;23;20000;-79
2022/10/30 20:23:31;;;;;;;4.82;2.28;;;;;;;;;;12870615;23;19997;-75
2022/10/30 20:28:34;;;;;;;5.18;2.35;;;;;;;;;;12849214;23;20467;-82
2022/10/30 20:33:34;;;;;;;6.78;2.50;;;;;;;;;;12849087;23;19992;-74
2022/10/30 20:38:35;;;;;;;6.87;2.50;;;;;;;;;;12849559;23;19997;-74
2022/10/30 20:43:37;;;;;;;11.03;3.40;;;;;;;;;;12823821;23;20000;-74
2022/10/30 20:48:38;;;;;;;6.57;3.17;;;;;;;;;;12850478;23;20021;-74
2022/10/30 20:53:38;;;;;;;5.25;2.55;;;;;;;;;;12848153;23;20388;-73
2022/10/30 20:58:39;;;;;;;6.60;3.13;;;;;;;;;;12859245;23;20463;-74
2022/10/30 21:03:39;;;;;;;3.15;2.35;;;;;;;;;;12847213;23;20000;-74
2022/10/30 21:08:41;;;;;;;8.30;3.30;;;;;;;;;;12864423;23;20000;-75
2022/10/30 21:13:41;;;;;;;4.03;2.65;;;;;;;;;;12866679;23;20429;-76
2022/10/30 21:18:41;;;;;;;6.30;3.03;;;;;;;;;;12848374;23;20103;-74
2022/10/30 21:23:41;;;;;;;5.57;2.60;;;;;;;;;;12853105;23;20052;-79
2022/10/30 21:28:42;;;;;;;5.75;3.08;;;;;;;;;;12850712;23;20414;-76
2022/10/30 21:33:42;;;;;;;5.50;3.03;;;;;;;;;;12866743;23;20160;-75
2022/10/30 21:38:43;;;;;;;4.43;2.92;;;;;;;;;;12857012;23;19993;-80
2022/10/30 21:43:48;;;;;;;6.25;2.92;;;;;;;;;;12846519;23;19992;-80
2022/10/30 21:48:48;;;;;;;8.30;3.25;;;;;;;;;;12842645;23;20009;-73
2022/10/30 21:53:49;;;;;;;5.13;2.95;;;;;;;;;;12846330;23;19988;-79
2022/10/30 21:58:50;;;;;;;7.80;3.38;;;;;;;;;;12844978;23;19993;-73
2022/10/30 22:03:51;;;;;;;11.32;3.35;;;;;;;;;;12867767;23;20008;-73
2022/10/30 22:08:52;;;;;;;5.43;2.83;;;;;;;;;;12848510;23;20036;-78
2022/10/30 22:13:53;;;;;;;19.05;5.40;;;;;;;;;;12869806;23;19996;-75
2022/10/30 22:18:54;;;;;;;9.13;4.60;;;;;;;;;;12849424;23;20487;-74
2022/10/30 22:23:55;;;;;;;10.35;3.38;;;;;;;;;;12850384;23;20000;-75
2022/10/30 22:28:56;;;;;;;11.82;3.67;;;;;;;;;;12848927;23;20085;-75
2022/10/30 22:34:00;;;;;;;11.30;2.85;;;;;;;;;;12870565;23;20005;-75
2022/10/30 22:39:02;;;;;;;10.32;3.75;;;;;;;;;;12874874;23;19999;-73
2022/10/30 22:44:02;;;;;;;5.72;3.00;;;;;;;;;;12871972;23;20001;-75
2022/10/30 22:49:03;;;;;;;7.90;3.15;;;;;;;;;;12848355;23;20037;-73
2022/10/30 22:54:04;;;;;;;5.15;2.58;;;;;;;;;;12849123;23;19989;-75
2022/10/30 22:59:06;;;;;;;6.68;3.58;;;;;;;;;;12872501;23;20020;-74
2022/10/30 23:04:08;;;;;;;5.68;3.00;;;;;;;;;;12865960;23;20074;-74
2022/10/30 23:09:20;;;;;;;5.20;3.33;;;;;;;;;;12847867;23;20000;-78
2022/10/30 23:14:21;;;;;;;7.43;3.83;;;;;;;;;;12863338;23;19996;-83
2022/10/30 23:19:21;;;;;;;5.57;3.20;;;;;;;;;;12850183;23;20004;-75
2022/10/30 23:24:22;;;;;;;6.38;3.40;;;;;;;;;;12851101;23;20026;-74
2022/10/30 23:29:22;;;;;;;7.10;3.75;;;;;;;;;;12850732;23;20008;-75
2022/10/30 23:34:24;;;;;;;5.07;3.15;;;;;;;;;;12851108;23;20008;-74
2022/10/30 23:39:27;;;;;;;7.10;3.40;;;;;;;;;;12890649;23;20003;-74
2022/10/30 23:44:27;;;;;;;9.82;3.05;;;;;;;;;;12864259;23;20092;-75
2022/10/30 23:49:27;;;;;;;7.00;2.72;;;;;;;;;;12870101;23;20052;-73
2022/10/30 23:54:28;;;;;;;9.63;3.75;;;;;;;;;;12892264;23;19996;-76
2022/10/30 23:59:28;;;;;;;9.32;3.45;;;;;;;;;;12853580;23;20413;-75
